sensor_id;sensor_type;location;lat;lon;timestamp;P1;durP1;ratioP1;P2;durP2;ratioP2
44722;SDS011;30451;48.638;10.624;2023-08-17T00:01:43;2.08;;;1.40;;
44722;SDS011;30451;48.638;10.624;2023-08-17T00:04:09;1.42;;;1.30;;
44722;SDS011;30451;48.638;10.624;2023-08-17T00:06:35;1.60;;;1.27;;
44722;SDS011;30451;48.638;10.624;2023-08-17T00:09:00;1.85;;;1.30;;
44722;SDS011;30451;48.638;10.624;2023-08-17T00:11:26;1.70;;;1.30;;
44722;SDS011;30451;48.638;10.624;2023-08-17T00:13:52;1.65;;;1.40;;
44722;SDS011;30451;48.638;10.624;2023-08-17T00:16:17;1.88;;;1.38;;
44722;SDS011;30451;48.638;10.624;2023-08-17T00:18:43;1.95;;;1.40;;
44722;SDS011;30451;48.638;10.624;2023-08-17T00:21:09;1.73;;;1.27;;
44722;SDS011;30451;48.638;10.624;2023-08-17T00:23:34;1.77;;;1.35;;
44722;SDS011;30451;48.638;10.624;2023-08-17T00:26:00;1.90;;;1.40;;
44722;SDS011;30451;48.638;10.624;2023-08-17T00:28:26;1.75;;;1.40;;
44722;SDS011;30451;48.638;10.624;2023-08-17T00:30:52;1.52;;;1.25;;
44722;SDS011;30451;48.638;10.624;2023-08-17T00:33:17;1.80;;;1.30;;
44722;SDS011;30451;48.638;10.624;2023-08-17T00:35:43;1.63;;;1.20;;
44722;SDS011;30451;48.638;10.624;2023-08-17T00:38:10;2.00;;;1.50;;
44722;SDS011;30451;48.638;10.624;2023-08-17T00:40:36;1.80;;;1.30;;
44722;SDS011;30451;48.638;10.624;2023-08-17T00:43:02;1.25;;;1.15;;
44722;SDS011;30451;48.638;10.624;2023-08-17T00:45:28;2.33;;;1.60;;
44722;SDS011;30451;48.638;10.624;2023-08-17T00:47:55;1.50;;;1.30;;
44722;SDS011;30451;48.638;10.624;2023-08-17T00:50:22;1.58;;;1.40;;
44722;SDS011;30451;48.638;10.624;2023-08-17T00:52:49;2.30;;;1.42;;
44722;SDS011;30451;48.638;10.624;2023-08-17T00:55:16;1.60;;;1.20;;
44722;SDS011;30451;48.638;10.624;2023-08-17T00:57:41;1.83;;;1.33;;
44722;SDS011;30451;48.638;10.624;2023-08-17T01:00:08;1.85;;;1.40;;
44722;SDS011;30451;48.638;10.624;2023-08-17T01:02:36;1.77;;;1.40;;
44722;SDS011;30451;48.638;10.624;2023-08-17T01:05:03;1.77;;;1.45;;
44722;SDS011;30451;48.638;10.624;2023-08-17T01:07:31;1.80;;;1.30;;
44722;SDS011;30451;48.638;10.624;2023-08-17T01:09:56;1.60;;;1.40;;
44722;SDS011;30451;48.638;10.624;2023-08-17T01:12:29;1.63;;;1.40;;
44722;SDS011;30451;48.638;10.624;2023-08-17T01:15:00;1.48;;;1.30;;
44722;SDS011;30451;48.638;10.624;2023-08-17T01:17:48;1.55;;;1.20;;
44722;SDS011;30451;48.638;10.624;2023-08-17T01:20:23;1.88;;;1.40;;
44722;SDS011;30451;48.638;10.624;2023-08-17T01:22:50;1.80;;;1.40;;
44722;SDS011;30451;48.638;10.624;2023-08-17T01:25:17;1.63;;;1.38;;
44722;SDS011;30451;48.638;10.624;2023-08-17T01:27:43;2.90;;;1.50;;
44722;SDS011;30451;48.638;10.624;2023-08-17T01:30:14;2.00;;;1.40;;
44722;SDS011;30451;48.638;10.624;2023-08-17T01:32:52;1.98;;;1.55;;
44722;SDS011;30451;48.638;10.624;2023-08-17T01:38:02;2.08;;;1.55;;
44722;SDS011;30451;48.638;10.624;2023-08-17T01:40:32;1.65;;;1.20;;
44722;SDS011;30451;48.638;10.624;2023-08-17T01:42:59;1.83;;;1.50;;
44722;SDS011;30451;48.638;10.624;2023-08-17T01:45:26;1.83;;;1.38;;
44722;SDS011;30451;48.638;10.624;2023-08-17T01:47:52;1.85;;;1.38;;
44722;SDS011;30451;48.638;10.624;2023-08-17T01:50:17;1.70;;;1.40;;
44722;SDS011;30451;48.638;10.624;2023-08-17T01:52:43;1.80;;;1.50;;
44722;SDS011;30451;48.638;10.624;2023-08-17T01:55:09;1.67;;;1.40;;
44722;SDS011;30451;48.638;10.624;2023-08-17T01:57:35;1.70;;;1.38;;
44722;SDS011;30451;48.638;10.624;2023-08-17T02:00:01;1.48;;;1.30;;
44722;SDS011;30451;48.638;10.624;2023-08-17T02:02:29;1.45;;;1.35;;
44722;SDS011;30451;48.638;10.624;2023-08-17T02:04:55;1.48;;;1.27;;
44722;SDS011;30451;48.638;10.624;2023-08-17T02:07:21;2.03;;;1.40;;
44722;SDS011;30451;48.638;10.624;2023-08-17T02:09:47;1.80;;;1.50;;
44722;SDS011;30451;48.638;10.624;2023-08-17T02:12:12;1.40;;;1.20;;
44722;SDS011;30451;48.638;10.624;2023-08-17T02:14:38;1.67;;;1.40;;
44722;SDS011;30451;48.638;10.624;2023-08-17T02:17:03;1.73;;;1.40;;
44722;SDS011;30451;48.638;10.624;2023-08-17T02:19:30;1.60;;;1.30;;
44722;SDS011;30451;48.638;10.624;2023-08-17T02:21:56;1.70;;;1.30;;
44722;SDS011;30451;48.638;10.624;2023-08-17T02:24:22;1.60;;;1.30;;
44722;SDS011;30451;48.638;10.624;2023-08-17T02:26:47;1.60;;;1.35;;
44722;SDS011;30451;48.638;10.624;2023-08-17T02:29:13;2.00;;;1.20;;
44722;SDS011;30451;48.638;10.624;2023-08-17T02:31:39;1.70;;;1.30;;
44722;SDS011;30451;48.638;10.624;2023-08-17T02:34:09;1.48;;;1.27;;
44722;SDS011;30451;48.638;10.624;2023-08-17T02:36:35;1.80;;;1.38;;
44722;SDS011;30451;48.638;10.624;2023-08-17T02:39:00;1.70;;;1.58;;
44722;SDS011;30451;48.638;10.624;2023-08-17T02:41:28;1.58;;;1.35;;
44722;SDS011;30451;48.638;10.624;2023-08-17T02:43:55;1.65;;;1.40;;
44722;SDS011;30451;48.638;10.624;2023-08-17T02:46:21;1.48;;;1.30;;
44722;SDS011;30451;48.638;10.624;2023-08-17T02:48:46;1.95;;;1.60;;
44722;SDS011;30451;48.638;10.624;2023-08-17T02:51:12;1.48;;;1.30;;
44722;SDS011;30451;48.638;10.624;2023-08-17T02:53:38;1.50;;;1.30;;
44722;SDS011;30451;48.638;10.624;2023-08-17T02:56:04;1.52;;;1.40;;
44722;SDS011;30451;48.638;10.624;2023-08-17T02:58:30;1.40;;;1.30;;
44722;SDS011;30451;48.638;10.624;2023-08-17T03:00:55;1.50;;;1.30;;
44722;SDS011;30451;48.638;10.624;2023-08-17T03:03:21;1.63;;;1.30;;
44722;SDS011;30451;48.638;10.624;2023-08-17T03:05:46;1.55;;;1.30;;
44722;SDS011;30451;48.638;10.624;2023-08-17T03:08:12;1.98;;;1.30;;
44722;SDS011;30451;48.638;10.624;2023-08-17T03:10:38;2.00;;;1.35;;
44722;SDS011;30451;48.638;10.624;2023-08-17T03:13:03;2.00;;;1.50;;
44722;SDS011;30451;48.638;10.624;2023-08-17T03:15:29;1.48;;;1.30;;
44722;SDS011;30451;48.638;10.624;2023-08-17T03:17:55;1.92;;;1.48;;
44722;SDS011;30451;48.638;10.624;2023-08-17T03:20:21;1.67;;;1.30;;
44722;SDS011;30451;48.638;10.624;2023-08-17T03:22:46;1.50;;;1.20;;
44722;SDS011;30451;48.638;10.624;2023-08-17T03:25:12;1.65;;;1.30;;
44722;SDS011;30451;48.638;10.624;2023-08-17T03:27:37;1.90;;;1.50;;
44722;SDS011;30451;48.638;10.624;2023-08-17T03:30:04;2.00;;;1.30;;
44722;SDS011;30451;48.638;10.624;2023-08-17T03:32:30;1.45;;;1.30;;
44722;SDS011;30451;48.638;10.624;2023-08-17T03:34:56;1.80;;;1.40;;
44722;SDS011;30451;48.638;10.624;2023-08-17T03:37:21;1.33;;;1.13;;
44722;SDS011;30451;48.638;10.624;2023-08-17T03:39:47;1.77;;;1.30;;
44722;SDS011;30451;48.638;10.624;2023-08-17T03:42:13;1.90;;;1.45;;
44722;SDS011;30451;48.638;10.624;2023-08-17T03:44:38;1.60;;;1.38;;
44722;SDS011;30451;48.638;10.624;2023-08-17T03:47:04;1.75;;;1.40;;
44722;SDS011;30451;48.638;10.624;2023-08-17T03:49:29;1.63;;;1.30;;
44722;SDS011;30451;48.638;10.624;2023-08-17T03:51:55;2.05;;;1.58;;
44722;SDS011;30451;48.638;10.624;2023-08-17T03:54:21;3.65;;;2.17;;
44722;SDS011;30451;48.638;10.624;2023-08-17T03:56:46;2.55;;;2.08;;
44722;SDS011;30451;48.638;10.624;2023-08-17T03:59:12;3.17;;;2.45;;
44722;SDS011;30451;48.638;10.624;2023-08-17T04:01:38;4.47;;;2.47;;
44722;SDS011;30451;48.638;10.624;2023-08-17T04:04:09;3.22;;;2.50;;
44722;SDS011;30451;48.638;10.624;2023-08-17T04:06:35;4.18;;;2.78;;
44722;SDS011;30451;48.638;10.624;2023-08-17T04:09:01;3.40;;;2.95;;
44722;SDS011;30451;48.638;10.624;2023-08-17T04:11:26;3.83;;;2.85;;
44722;SDS011;30451;48.638;10.624;2023-08-17T04:13:52;3.60;;;3.00;;
44722;SDS011;30451;48.638;10.624;2023-08-17T04:16:18;4.97;;;3.28;;
44722;SDS011;30451;48.638;10.624;2023-08-17T04:18:43;4.53;;;3.25;;
44722;SDS011;30451;48.638;10.624;2023-08-17T04:21:09;5.65;;;3.63;;
44722;SDS011;30451;48.638;10.624;2023-08-17T04:23:34;3.50;;;2.88;;
44722;SDS011;30451;48.638;10.624;2023-08-17T04:26:00;4.93;;;2.90;;
44722;SDS011;30451;48.638;10.624;2023-08-17T04:28:25;4.40;;;3.30;;
44722;SDS011;30451;48.638;10.624;2023-08-17T04:30:51;3.90;;;3.35;;
44722;SDS011;30451;48.638;10.624;2023-08-17T04:33:17;3.97;;;3.28;;
44722;SDS011;30451;48.638;10.624;2023-08-17T04:35:45;3.80;;;3.13;;
44722;SDS011;30451;48.638;10.624;2023-08-17T04:38:12;3.88;;;3.08;;
44722;SDS011;30451;48.638;10.624;2023-08-17T04:40:38;3.33;;;2.60;;
44722;SDS011;30451;48.638;10.624;2023-08-17T04:43:04;3.28;;;2.72;;
44722;SDS011;30451;48.638;10.624;2023-08-17T04:45:29;4.95;;;3.00;;
44722;SDS011;30451;48.638;10.624;2023-08-17T04:47:55;3.83;;;2.95;;
44722;SDS011;30451;48.638;10.624;2023-08-17T04:50:20;4.53;;;2.80;;
44722;SDS011;30451;48.638;10.624;2023-08-17T04:52:46;3.58;;;2.65;;
44722;SDS011;30451;48.638;10.624;2023-08-17T04:55:14;4.05;;;2.90;;
44722;SDS011;30451;48.638;10.624;2023-08-17T04:57:40;2.97;;;2.42;;
44722;SDS011;30451;48.638;10.624;2023-08-17T05:00:06;3.35;;;2.60;;
44722;SDS011;30451;48.638;10.624;2023-08-17T05:02:34;4.25;;;2.40;;
44722;SDS011;30451;48.638;10.624;2023-08-17T05:05:02;3.13;;;2.20;;
44722;SDS011;30451;48.638;10.624;2023-08-17T05:07:29;3.17;;;2.58;;
44722;SDS011;30451;48.638;10.624;2023-08-17T05:09:54;4.03;;;2.90;;
44722;SDS011;30451;48.638;10.624;2023-08-17T05:12:20;3.30;;;2.70;;
44722;SDS011;30451;48.638;10.624;2023-08-17T05:14:46;3.58;;;2.70;;
44722;SDS011;30451;48.638;10.624;2023-08-17T05:17:11;3.33;;;2.80;;
44722;SDS011;30451;48.638;10.624;2023-08-17T05:19:37;3.22;;;2.55;;
44722;SDS011;30451;48.638;10.624;2023-08-17T05:22:04;3.20;;;2.55;;
44722;SDS011;30451;48.638;10.624;2023-08-17T05:24:31;3.85;;;2.90;;
44722;SDS011;30451;48.638;10.624;2023-08-17T05:26:56;3.83;;;2.80;;
44722;SDS011;30451;48.638;10.624;2023-08-17T05:29:22;3.17;;;2.65;;
44722;SDS011;30451;48.638;10.624;2023-08-17T05:31:48;3.10;;;2.60;;
44722;SDS011;30451;48.638;10.624;2023-08-17T05:34:14;4.22;;;2.60;;
44722;SDS011;30451;48.638;10.624;2023-08-17T05:36:39;2.78;;;2.38;;
44722;SDS011;30451;48.638;10.624;2023-08-17T05:39:06;3.55;;;2.75;;
44722;SDS011;30451;48.638;10.624;2023-08-17T05:41:31;3.83;;;2.78;;
44722;SDS011;30451;48.638;10.624;2023-08-17T05:43:57;3.50;;;2.75;;
44722;SDS011;30451;48.638;10.624;2023-08-17T05:46:23;3.20;;;2.63;;
44722;SDS011;30451;48.638;10.624;2023-08-17T05:48:49;3.63;;;2.65;;
44722;SDS011;30451;48.638;10.624;2023-08-17T05:51:14;4.05;;;2.83;;
44722;SDS011;30451;48.638;10.624;2023-08-17T05:53:40;3.80;;;3.00;;
44722;SDS011;30451;48.638;10.624;2023-08-17T05:56:06;3.22;;;2.85;;
44722;SDS011;30451;48.638;10.624;2023-08-17T05:58:32;4.35;;;3.00;;
44722;SDS011;30451;48.638;10.624;2023-08-17T06:01:04;3.40;;;3.08;;
44722;SDS011;30451;48.638;10.624;2023-08-17T06:03:31;3.72;;;2.72;;
44722;SDS011;30451;48.638;10.624;2023-08-17T06:05:56;3.28;;;2.60;;
44722;SDS011;30451;48.638;10.624;2023-08-17T06:08:22;3.15;;;2.58;;
44722;SDS011;30451;48.638;10.624;2023-08-17T06:10:48;3.20;;;2.40;;
44722;SDS011;30451;48.638;10.624;2023-08-17T06:13:13;3.05;;;2.20;;
44722;SDS011;30451;48.638;10.624;2023-08-17T06:15:39;3.25;;;2.40;;
44722;SDS011;30451;48.638;10.624;2023-08-17T06:18:05;2.50;;;2.10;;
44722;SDS011;30451;48.638;10.624;2023-08-17T06:20:31;3.85;;;2.63;;
44722;SDS011;30451;48.638;10.624;2023-08-17T06:22:56;2.58;;;1.90;;
44722;SDS011;30451;48.638;10.624;2023-08-17T06:25:22;4.00;;;2.40;;
44722;SDS011;30451;48.638;10.624;2023-08-17T06:27:51;2.50;;;2.30;;
44722;SDS011;30451;48.638;10.624;2023-08-17T06:30:17;3.90;;;2.70;;
44722;SDS011;30451;48.638;10.624;2023-08-17T06:32:43;3.92;;;2.60;;
44722;SDS011;30451;48.638;10.624;2023-08-17T06:35:08;3.90;;;2.90;;
44722;SDS011;30451;48.638;10.624;2023-08-17T06:37:35;2.95;;;2.60;;
44722;SDS011;30451;48.638;10.624;2023-08-17T06:40:01;3.95;;;2.70;;
44722;SDS011;30451;48.638;10.624;2023-08-17T06:42:28;2.92;;;2.50;;
44722;SDS011;30451;48.638;10.624;2023-08-17T06:44:53;3.83;;;2.72;;
44722;SDS011;30451;48.638;10.624;2023-08-17T06:47:19;2.97;;;2.67;;
44722;SDS011;30451;48.638;10.624;2023-08-17T06:49:44;3.25;;;2.50;;
44722;SDS011;30451;48.638;10.624;2023-08-17T06:52:10;5.43;;;2.90;;
44722;SDS011;30451;48.638;10.624;2023-08-17T06:54:35;3.50;;;2.92;;
44722;SDS011;30451;48.638;10.624;2023-08-17T06:57:01;3.40;;;2.60;;
44722;SDS011;30451;48.638;10.624;2023-08-17T06:59:27;3.33;;;2.65;;
44722;SDS011;30451;48.638;10.624;2023-08-17T07:01:52;3.65;;;2.60;;
44722;SDS011;30451;48.638;10.624;2023-08-17T07:04:18;2.92;;;2.50;;
44722;SDS011;30451;48.638;10.624;2023-08-17T07:06:43;3.10;;;2.58;;
44722;SDS011;30451;48.638;10.624;2023-08-17T07:09:09;3.20;;;2.78;;
44722;SDS011;30451;48.638;10.624;2023-08-17T07:11:37;3.10;;;2.40;;
44722;SDS011;30451;48.638;10.624;2023-08-17T07:14:03;2.85;;;2.40;;
44722;SDS011;30451;48.638;10.624;2023-08-17T07:16:31;3.40;;;2.22;;
44722;SDS011;30451;48.638;10.624;2023-08-17T07:18:57;3.40;;;2.25;;
44722;SDS011;30451;48.638;10.624;2023-08-17T07:21:22;3.90;;;2.70;;
44722;SDS011;30451;48.638;10.624;2023-08-17T07:23:49;2.80;;;2.35;;
44722;SDS011;30451;48.638;10.624;2023-08-17T07:26:16;2.72;;;2.10;;
44722;SDS011;30451;48.638;10.624;2023-08-17T07:28:44;2.92;;;2.25;;
44722;SDS011;30451;48.638;10.624;2023-08-17T07:31:10;3.40;;;2.47;;
44722;SDS011;30451;48.638;10.624;2023-08-17T07:33:36;3.25;;;2.72;;
44722;SDS011;30451;48.638;10.624;2023-08-17T07:36:02;2.85;;;2.42;;
44722;SDS011;30451;48.638;10.624;2023-08-17T07:38:27;3.08;;;2.50;;
44722;SDS011;30451;48.638;10.624;2023-08-17T07:40:54;2.85;;;2.38;;
44722;SDS011;30451;48.638;10.624;2023-08-17T07:43:20;3.10;;;2.45;;
44722;SDS011;30451;48.638;10.624;2023-08-17T07:45:52;2.78;;;2.25;;
44722;SDS011;30451;48.638;10.624;2023-08-17T07:48:23;2.80;;;2.40;;
44722;SDS011;30451;48.638;10.624;2023-08-17T07:50:50;3.03;;;2.40;;
44722;SDS011;30451;48.638;10.624;2023-08-17T07:53:16;3.53;;;2.40;;
44722;SDS011;30451;48.638;10.624;2023-08-17T07:55:42;3.42;;;2.20;;
44722;SDS011;30451;48.638;10.624;2023-08-17T07:58:08;2.80;;;2.28;;
44722;SDS011;30451;48.638;10.624;2023-08-17T08:00:33;3.00;;;2.38;;
44722;SDS011;30451;48.638;10.624;2023-08-17T08:02:59;2.97;;;2.30;;
44722;SDS011;30451;48.638;10.624;2023-08-17T08:05:25;2.90;;;2.22;;
44722;SDS011;30451;48.638;10.624;2023-08-17T08:07:51;2.88;;;2.25;;
44722;SDS011;30451;48.638;10.624;2023-08-17T08:10:18;3.50;;;2.42;;
44722;SDS011;30451;48.638;10.624;2023-08-17T08:12:43;3.63;;;2.33;;
44722;SDS011;30451;48.638;10.624;2023-08-17T08:15:09;2.58;;;2.30;;
44722;SDS011;30451;48.638;10.624;2023-08-17T08:17:35;2.97;;;2.45;;
44722;SDS011;30451;48.638;10.624;2023-08-17T08:20:00;3.47;;;2.50;;
44722;SDS011;30451;48.638;10.624;2023-08-17T08:22:26;2.85;;;2.35;;
44722;SDS011;30451;48.638;10.624;2023-08-17T08:24:52;3.03;;;2.22;;
44722;SDS011;30451;48.638;10.624;2023-08-17T08:27:18;2.92;;;2.40;;
44722;SDS011;30451;48.638;10.624;2023-08-17T08:29:43;4.57;;;2.50;;
44722;SDS011;30451;48.638;10.624;2023-08-17T08:32:09;2.90;;;2.25;;
44722;SDS011;30451;48.638;10.624;2023-08-17T08:34:35;2.97;;;2.20;;
44722;SDS011;30451;48.638;10.624;2023-08-17T08:37:00;2.53;;;2.15;;
44722;SDS011;30451;48.638;10.624;2023-08-17T08:39:26;3.15;;;2.20;;
44722;SDS011;30451;48.638;10.624;2023-08-17T08:41:52;3.80;;;2.20;;
44722;SDS011;30451;48.638;10.624;2023-08-17T08:44:18;2.88;;;2.22;;
44722;SDS011;30451;48.638;10.624;2023-08-17T08:46:44;3.17;;;2.50;;
44722;SDS011;30451;48.638;10.624;2023-08-17T08:49:11;2.90;;;2.35;;
44722;SDS011;30451;48.638;10.624;2023-08-17T08:51:41;2.90;;;2.40;;
44722;SDS011;30451;48.638;10.624;2023-08-17T08:54:12;3.47;;;2.45;;
44722;SDS011;30451;48.638;10.624;2023-08-17T08:56:39;3.00;;;2.40;;
44722;SDS011;30451;48.638;10.624;2023-08-17T08:59:07;3.03;;;2.33;;
44722;SDS011;30451;48.638;10.624;2023-08-17T09:01:33;2.92;;;2.22;;
44722;SDS011;30451;48.638;10.624;2023-08-17T09:04:00;5.18;;;2.20;;
44722;SDS011;30451;48.638;10.624;2023-08-17T09:06:26;2.50;;;2.30;;
44722;SDS011;30451;48.638;10.624;2023-08-17T09:08:52;2.60;;;2.20;;
44722;SDS011;30451;48.638;10.624;2023-08-17T09:11:18;2.92;;;2.40;;
44722;SDS011;30451;48.638;10.624;2023-08-17T09:13:44;2.85;;;2.15;;
44722;SDS011;30451;48.638;10.624;2023-08-17T09:16:09;2.92;;;2.22;;
44722;SDS011;30451;48.638;10.624;2023-08-17T09:18:35;2.72;;;2.00;;
44722;SDS011;30451;48.638;10.624;2023-08-17T09:21:00;3.30;;;2.10;;
44722;SDS011;30451;48.638;10.624;2023-08-17T09:23:26;3.00;;;2.40;;
44722;SDS011;30451;48.638;10.624;2023-08-17T09:25:52;2.60;;;2.20;;
44722;SDS011;30451;48.638;10.624;2023-08-17T09:28:23;2.88;;;2.50;;
44722;SDS011;30451;48.638;10.624;2023-08-17T09:31:01;2.53;;;2.10;;
44722;SDS011;30451;48.638;10.624;2023-08-17T09:33:35;2.85;;;2.00;;
44722;SDS011;30451;48.638;10.624;2023-08-17T09:36:01;3.08;;;2.22;;
44722;SDS011;30451;48.638;10.624;2023-08-17T09:38:27;3.30;;;2.28;;
44722;SDS011;30451;48.638;10.624;2023-08-17T09:40:53;2.67;;;2.22;;
44722;SDS011;30451;48.638;10.624;2023-08-17T09:43:19;2.22;;;2.03;;
44722;SDS011;30451;48.638;10.624;2023-08-17T09:45:46;3.20;;;2.35;;
44722;SDS011;30451;48.638;10.624;2023-08-17T09:48:17;3.22;;;2.05;;
44722;SDS011;30451;48.638;10.624;2023-08-17T09:50:44;2.67;;;2.20;;
44722;SDS011;30451;48.638;10.624;2023-08-17T09:53:15;2.95;;;2.15;;
44722;SDS011;30451;48.638;10.624;2023-08-17T09:55:42;2.72;;;2.10;;
44722;SDS011;30451;48.638;10.624;2023-08-17T09:58:09;2.60;;;2.10;;
44722;SDS011;30451;48.638;10.624;2023-08-17T10:00:39;3.03;;;2.13;;
44722;SDS011;30451;48.638;10.624;2023-08-17T10:03:10;2.47;;;1.98;;
44722;SDS011;30451;48.638;10.624;2023-08-17T10:05:38;3.58;;;1.88;;
44722;SDS011;30451;48.638;10.624;2023-08-17T10:08:07;3.15;;;2.22;;
44722;SDS011;30451;48.638;10.624;2023-08-17T10:10:35;2.37;;;1.90;;
44722;SDS011;30451;48.638;10.624;2023-08-17T10:13:08;2.30;;;2.00;;
44722;SDS011;30451;48.638;10.624;2023-08-17T10:21:02;2.50;;;2.05;;
44722;SDS011;30451;48.638;10.624;2023-08-17T10:23:32;2.33;;;1.92;;
44722;SDS011;30451;48.638;10.624;2023-08-17T10:26:00;2.47;;;1.92;;
44722;SDS011;30451;48.638;10.624;2023-08-17T10:28:27;2.50;;;1.80;;
44722;SDS011;30451;48.638;10.624;2023-08-17T10:30:55;4.18;;;1.92;;
44722;SDS011;30451;48.638;10.624;2023-08-17T10:33:21;2.78;;;1.90;;
44722;SDS011;30451;48.638;10.624;2023-08-17T10:35:48;2.30;;;1.98;;
44722;SDS011;30451;48.638;10.624;2023-08-17T10:38:14;2.40;;;1.90;;
44722;SDS011;30451;48.638;10.624;2023-08-17T10:40:41;2.30;;;1.77;;
44722;SDS011;30451;48.638;10.624;2023-08-17T10:43:07;2.55;;;1.90;;
44722;SDS011;30451;48.638;10.624;2023-08-17T10:45:34;2.72;;;1.88;;
44722;SDS011;30451;48.638;10.624;2023-08-17T10:50:37;2.97;;;2.38;;
44722;SDS011;30451;48.638;10.624;2023-08-17T10:53:04;2.40;;;1.92;;
44722;SDS011;30451;48.638;10.624;2023-08-17T10:55:37;2.58;;;1.98;;
44722;SDS011;30451;48.638;10.624;2023-08-17T10:58:09;2.28;;;1.83;;
44722;SDS011;30451;48.638;10.624;2023-08-17T11:00:36;2.72;;;2.00;;
44722;SDS011;30451;48.638;10.624;2023-08-17T11:03:04;2.17;;;1.80;;
44722;SDS011;30451;48.638;10.624;2023-08-17T11:05:36;2.20;;;1.88;;
44722;SDS011;30451;48.638;10.624;2023-08-17T11:08:55;2.40;;;1.80;;
44722;SDS011;30451;48.638;10.624;2023-08-17T11:13:29;2.60;;;1.92;;
44722;SDS011;30451;48.638;10.624;2023-08-17T11:15:57;2.40;;;1.90;;
44722;SDS011;30451;48.638;10.624;2023-08-17T11:18:24;1.90;;;1.60;;
44722;SDS011;30451;48.638;10.624;2023-08-17T11:20:50;1.92;;;1.67;;
44722;SDS011;30451;48.638;10.624;2023-08-17T11:23:16;2.85;;;1.90;;
44722;SDS011;30451;48.638;10.624;2023-08-17T11:25:43;2.28;;;1.80;;
44722;SDS011;30451;48.638;10.624;2023-08-17T11:28:09;3.58;;;1.95;;
44722;SDS011;30451;48.638;10.624;2023-08-17T11:30:35;2.20;;;1.80;;
44722;SDS011;30451;48.638;10.624;2023-08-17T11:33:09;3.00;;;1.80;;
44722;SDS011;30451;48.638;10.624;2023-08-17T11:35:38;1.95;;;1.60;;
44722;SDS011;30451;48.638;10.624;2023-08-17T11:38:04;2.08;;;1.70;;
44722;SDS011;30451;48.638;10.624;2023-08-17T11:40:31;2.40;;;1.80;;
44722;SDS011;30451;48.638;10.624;2023-08-17T11:42:57;2.38;;;1.80;;
44722;SDS011;30451;48.638;10.624;2023-08-17T11:45:23;2.03;;;1.73;;
44722;SDS011;30451;48.638;10.624;2023-08-17T11:47:49;2.28;;;1.63;;
44722;SDS011;30451;48.638;10.624;2023-08-17T11:50:14;2.38;;;1.63;;
44722;SDS011;30451;48.638;10.624;2023-08-17T11:52:40;2.10;;;1.70;;
44722;SDS011;30451;48.638;10.624;2023-08-17T11:55:06;2.05;;;1.50;;
44722;SDS011;30451;48.638;10.624;2023-08-17T11:57:36;2.38;;;1.60;;
44722;SDS011;30451;48.638;10.624;2023-08-17T12:00:03;2.00;;;1.63;;
44722;SDS011;30451;48.638;10.624;2023-08-17T12:02:37;1.80;;;1.50;;
44722;SDS011;30451;48.638;10.624;2023-08-17T12:05:07;2.47;;;1.80;;
44722;SDS011;30451;48.638;10.624;2023-08-17T12:07:34;2.03;;;1.67;;
44722;SDS011;30451;48.638;10.624;2023-08-17T12:10:02;2.25;;;1.77;;
44722;SDS011;30451;48.638;10.624;2023-08-17T12:12:29;1.70;;;1.50;;
44722;SDS011;30451;48.638;10.624;2023-08-17T12:14:55;1.80;;;1.55;;
44722;SDS011;30451;48.638;10.624;2023-08-17T12:17:22;1.63;;;1.40;;
44722;SDS011;30451;48.638;10.624;2023-08-17T12:19:53;2.08;;;1.70;;
44722;SDS011;30451;48.638;10.624;2023-08-17T12:22:19;2.10;;;1.60;;
44722;SDS011;30451;48.638;10.624;2023-08-17T12:24:49;1.92;;;1.50;;
44722;SDS011;30451;48.638;10.624;2023-08-17T12:27:15;2.38;;;1.83;;
44722;SDS011;30451;48.638;10.624;2023-08-17T12:29:47;2.97;;;1.50;;
44722;SDS011;30451;48.638;10.624;2023-08-17T12:32:14;1.88;;;1.50;;
44722;SDS011;30451;48.638;10.624;2023-08-17T12:34:41;2.45;;;1.60;;
44722;SDS011;30451;48.638;10.624;2023-08-17T12:37:08;1.98;;;1.50;;
44722;SDS011;30451;48.638;10.624;2023-08-17T12:39:37;2.20;;;1.50;;
44722;SDS011;30451;48.638;10.624;2023-08-17T12:42:04;2.00;;;1.63;;
44722;SDS011;30451;48.638;10.624;2023-08-17T12:44:30;1.80;;;1.30;;
44722;SDS011;30451;48.638;10.624;2023-08-17T12:46:56;1.85;;;1.40;;
44722;SDS011;30451;48.638;10.624;2023-08-17T12:49:22;2.25;;;1.50;;
44722;SDS011;30451;48.638;10.624;2023-08-17T12:51:48;1.70;;;1.38;;
44722;SDS011;30451;48.638;10.624;2023-08-17T12:54:14;1.83;;;1.40;;
44722;SDS011;30451;48.638;10.624;2023-08-17T12:56:39;1.83;;;1.50;;
44722;SDS011;30451;48.638;10.624;2023-08-17T12:59:05;2.05;;;1.50;;
44722;SDS011;30451;48.638;10.624;2023-08-17T13:01:31;2.17;;;1.55;;
44722;SDS011;30451;48.638;10.624;2023-08-17T13:03:56;1.90;;;1.50;;
44722;SDS011;30451;48.638;10.624;2023-08-17T13:06:22;1.90;;;1.40;;
44722;SDS011;30451;48.638;10.624;2023-08-17T13:08:48;1.85;;;1.60;;
44722;SDS011;30451;48.638;10.624;2023-08-17T13:11:13;2.13;;;1.60;;
44722;SDS011;30451;48.638;10.624;2023-08-17T13:13:39;2.25;;;1.60;;
44722;SDS011;30451;48.638;10.624;2023-08-17T13:16:04;2.05;;;1.73;;
44722;SDS011;30451;48.638;10.624;2023-08-17T13:18:30;2.05;;;1.60;;
44722;SDS011;30451;48.638;10.624;2023-08-17T13:20:55;2.22;;;1.60;;
44722;SDS011;30451;48.638;10.624;2023-08-17T13:23:21;2.05;;;1.60;;
44722;SDS011;30451;48.638;10.624;2023-08-17T13:25:47;2.30;;;1.70;;
44722;SDS011;30451;48.638;10.624;2023-08-17T13:28:12;2.38;;;1.70;;
44722;SDS011;30451;48.638;10.624;2023-08-17T13:30:38;1.70;;;1.40;;
44722;SDS011;30451;48.638;10.624;2023-08-17T13:33:04;2.10;;;1.60;;
44722;SDS011;30451;48.638;10.624;2023-08-17T13:35:31;2.00;;;1.70;;
44722;SDS011;30451;48.638;10.624;2023-08-17T13:37:58;1.98;;;1.60;;
44722;SDS011;30451;48.638;10.624;2023-08-17T13:40:23;2.08;;;1.55;;
44722;SDS011;30451;48.638;10.624;2023-08-17T13:42:49;2.38;;;1.60;;
44722;SDS011;30451;48.638;10.624;2023-08-17T13:45:15;2.05;;;1.60;;
44722;SDS011;30451;48.638;10.624;2023-08-17T13:47:41;1.73;;;1.50;;
44722;SDS011;30451;48.638;10.624;2023-08-17T13:50:07;2.70;;;1.83;;
44722;SDS011;30451;48.638;10.624;2023-08-17T13:52:32;2.30;;;1.73;;
44722;SDS011;30451;48.638;10.624;2023-08-17T13:54:58;2.92;;;1.50;;
44722;SDS011;30451;48.638;10.624;2023-08-17T13:57:24;2.17;;;1.55;;
44722;SDS011;30451;48.638;10.624;2023-08-17T13:59:49;2.38;;;1.67;;
44722;SDS011;30451;48.638;10.624;2023-08-17T14:02:15;1.90;;;1.50;;
44722;SDS011;30451;48.638;10.624;2023-08-17T14:04:41;1.90;;;1.52;;
44722;SDS011;30451;48.638;10.624;2023-08-17T14:07:06;2.00;;;1.40;;
44722;SDS011;30451;48.638;10.624;2023-08-17T14:09:32;2.55;;;1.80;;
44722;SDS011;30451;48.638;10.624;2023-08-17T14:11:57;1.88;;;1.50;;
44722;SDS011;30451;48.638;10.624;2023-08-17T14:14:24;1.75;;;1.45;;
44722;SDS011;30451;48.638;10.624;2023-08-17T14:16:50;1.70;;;1.35;;
44722;SDS011;30451;48.638;10.624;2023-08-17T14:19:15;2.00;;;1.60;;
44722;SDS011;30451;48.638;10.624;2023-08-17T14:21:41;1.90;;;1.42;;
44722;SDS011;30451;48.638;10.624;2023-08-17T14:24:07;2.15;;;1.65;;
44722;SDS011;30451;48.638;10.624;2023-08-17T14:26:33;1.92;;;1.50;;
44722;SDS011;30451;48.638;10.624;2023-08-17T14:28:59;1.88;;;1.48;;
44722;SDS011;30451;48.638;10.624;2023-08-17T14:31:24;2.40;;;1.50;;
44722;SDS011;30451;48.638;10.624;2023-08-17T14:33:50;1.70;;;1.38;;
44722;SDS011;30451;48.638;10.624;2023-08-17T14:36:16;1.80;;;1.52;;
44722;SDS011;30451;48.638;10.624;2023-08-17T14:38:42;1.45;;;1.25;;
44722;SDS011;30451;48.638;10.624;2023-08-17T14:41:08;1.80;;;1.40;;
44722;SDS011;30451;48.638;10.624;2023-08-17T14:43:34;1.38;;;1.20;;